sensor_id;sensor_type;location;lat;lon;timestamp;temperature;humidity
11617;DHT22;5864;52.998;9.068;2023-04-16T00:00:06;9.60;99.90
11617;DHT22;5864;52.998;9.068;2023-04-16T00:02:52;9.60;99.90
11617;DHT22;5864;52.998;9.068;2023-04-16T00:05:37;9.50;99.90
11617;DHT22;5864;52.998;9.068;2023-04-16T00:08:23;9.50;99.90
11617;DHT22;5864;52.998;9.068;2023-04-16T00:11:10;9.40;99.90
11617;DHT22;5864;52.998;9.068;2023-04-16T00:13:56;9.40;99.90
11617;DHT22;5864;52.998;9.068;2023-04-16T00:16:41;9.50;99.90
11617;DHT22;5864;52.998;9.068;2023-04-16T00:19:27;9.40;99.90
11617;DHT22;5864;52.998;9.068;2023-04-16T00:22:13;9.30;99.90
11617;DHT22;5864;52.998;9.068;2023-04-16T00:24:58;9.30;99.90
11617;DHT22;5864;52.998;9.068;2023-04-16T00:27:46;9.30;99.90
11617;DHT22;5864;52.998;9.068;2023-04-16T00:30:31;10.00;99.90
11617;DHT22;5864;52.998;9.068;2023-04-16T00:33:18;9.30;99.90
11617;DHT22;5864;52.998;9.068;2023-04-16T00:36:04;9.40;99.90
11617;DHT22;5864;52.998;9.068;2023-04-16T00:38:49;9.20;99.90
11617;DHT22;5864;52.998;9.068;2023-04-16T00:41:36;9.20;99.90
11617;DHT22;5864;52.998;9.068;2023-04-16T00:44:23;9.10;99.90
11617;DHT22;5864;52.998;9.068;2023-04-16T00:47:09;9.10;99.90
11617;DHT22;5864;52.998;9.068;2023-04-16T00:49:55;9.00;99.90
11617;DHT22;5864;52.998;9.068;2023-04-16T00:52:41;9.30;99.90
11617;DHT22;5864;52.998;9.068;2023-04-16T00:55:27;9.10;99.90
11617;DHT22;5864;52.998;9.068;2023-04-16T00:58:13;10.70;99.90
11617;DHT22;5864;52.998;9.068;2023-04-16T01:01:00;9.10;99.90
11617;DHT22;5864;52.998;9.068;2023-04-16T01:03:47;9.10;99.90
11617;DHT22;5864;52.998;9.068;2023-04-16T01:06:34;9.10;99.90
11617;DHT22;5864;52.998;9.068;2023-04-16T01:09:19;9.50;99.90
11617;DHT22;5864;52.998;9.068;2023-04-16T01:12:06;9.10;99.90
11617;DHT22;5864;52.998;9.068;2023-04-16T01:14:51;9.00;99.90
11617;DHT22;5864;52.998;9.068;2023-04-16T01:17:39;9.00;99.90
11617;DHT22;5864;52.998;9.068;2023-04-16T01:20:25;8.90;99.90
11617;DHT22;5864;52.998;9.068;2023-04-16T01:23:12;8.90;99.90
11617;DHT22;5864;52.998;9.068;2023-04-16T01:25:57;9.00;99.90
11617;DHT22;5864;52.998;9.068;2023-04-16T01:28:43;9.30;99.90
11617;DHT22;5864;52.998;9.068;2023-04-16T01:31:29;8.90;99.90
11617;DHT22;5864;52.998;9.068;2023-04-16T01:34:14;8.90;99.90
11617;DHT22;5864;52.998;9.068;2023-04-16T01:37:00;8.90;99.90
11617;DHT22;5864;52.998;9.068;2023-04-16T01:39:46;10.50;99.90
11617;DHT22;5864;52.998;9.068;2023-04-16T01:42:33;8.90;99.90
11617;DHT22;5864;52.998;9.068;2023-04-16T01:45:18;8.90;99.90
11617;DHT22;5864;52.998;9.068;2023-04-16T01:48:05;8.90;99.90
11617;DHT22;5864;52.998;9.068;2023-04-16T01:50:51;8.80;99.90
11617;DHT22;5864;52.998;9.068;2023-04-16T01:53:37;8.70;99.90
11617;DHT22;5864;52.998;9.068;2023-04-16T01:56:24;8.70;99.90
11617;DHT22;5864;52.998;9.068;2023-04-16T01:59:09;9.60;99.90
11617;DHT22;5864;52.998;9.068;2023-04-16T02:01:55;10.20;99.90
11617;DHT22;5864;52.998;9.068;2023-04-16T02:04:43;9.50;99.90
11617;DHT22;5864;52.998;9.068;2023-04-16T02:07:29;10.10;99.90
11617;DHT22;5864;52.998;9.068;2023-04-16T02:10:16;8.70;99.90
11617;DHT22;5864;52.998;9.068;2023-04-16T02:13:02;8.70;99.90
11617;DHT22;5864;52.998;9.068;2023-04-16T02:15:49;8.60;99.90
11617;DHT22;5864;52.998;9.068;2023-04-16T02:18:35;8.60;99.90
11617;DHT22;5864;52.998;9.068;2023-04-16T02:21:20;8.70;99.90
11617;DHT22;5864;52.998;9.068;2023-04-16T02:24:06;9.30;99.90
11617;DHT22;5864;52.998;9.068;2023-04-16T02:26:51;8.60;99.90
11617;DHT22;5864;52.998;9.068;2023-04-16T02:29:39;8.60;99.90
11617;DHT22;5864;52.998;9.068;2023-04-16T02:32:24;10.60;99.90
11617;DHT22;5864;52.998;9.068;2023-04-16T02:35:11;8.50;99.90
11617;DHT22;5864;52.998;9.068;2023-04-16T02:37:56;8.50;99.90
11617;DHT22;5864;52.998;9.068;2023-04-16T02:40:43;8.50;99.90
11617;DHT22;5864;52.998;9.068;2023-04-16T02:43:28;9.60;99.90
11617;DHT22;5864;52.998;9.068;2023-04-16T02:46:16;8.40;99.90
11617;DHT22;5864;52.998;9.068;2023-04-16T02:49:01;8.50;99.90
11617;DHT22;5864;52.998;9.068;2023-04-16T02:51:48;8.60;99.90
11617;DHT22;5864;52.998;9.068;2023-04-16T02:54:33;8.60;99.90
11617;DHT22;5864;52.998;9.068;2023-04-16T02:57:20;8.50;99.90
11617;DHT22;5864;52.998;9.068;2023-04-16T03:00:07;9.90;99.90
11617;DHT22;5864;52.998;9.068;2023-04-16T03:02:54;8.50;99.90
11617;DHT22;5864;52.998;9.068;2023-04-16T03:05:39;8.50;99.90
11617;DHT22;5864;52.998;9.068;2023-04-16T03:08:26;8.40;99.90
11617;DHT22;5864;52.998;9.068;2023-04-16T03:11:11;8.50;99.90
11617;DHT22;5864;52.998;9.068;2023-04-16T03:13:57;8.50;99.90
11617;DHT22;5864;52.998;9.068;2023-04-16T03:16:42;8.50;99.90
11617;DHT22;5864;52.998;9.068;2023-04-16T03:19:29;8.50;99.90
11617;DHT22;5864;52.998;9.068;2023-04-16T03:22:14;8.50;99.90
11617;DHT22;5864;52.998;9.068;2023-04-16T03:25:01;8.40;99.90
11617;DHT22;5864;52.998;9.068;2023-04-16T03:27:46;8.50;99.90
11617;DHT22;5864;52.998;9.068;2023-04-16T03:30:32;8.50;99.90
11617;DHT22;5864;52.998;9.068;2023-04-16T03:33:17;8.50;99.90
11617;DHT22;5864;52.998;9.068;2023-04-16T03:36:05;9.40;99.90
11617;DHT22;5864;52.998;9.068;2023-04-16T03:38:51;8.60;99.90
11617;DHT22;5864;52.998;9.068;2023-04-16T03:41:36;8.50;99.90
11617;DHT22;5864;52.998;9.068;2023-04-16T03:44:22;9.20;99.90
11617;DHT22;5864;52.998;9.068;2023-04-16T03:47:07;8.50;99.90
11617;DHT22;5864;52.998;9.068;2023-04-16T03:49:53;8.40;99.90
11617;DHT22;5864;52.998;9.068;2023-04-16T03:52:40;8.40;99.90
11617;DHT22;5864;52.998;9.068;2023-04-16T03:55:25;8.60;99.90
11617;DHT22;5864;52.998;9.068;2023-04-16T03:58:11;9.60;99.90
11617;DHT22;5864;52.998;9.068;2023-04-16T04:00:56;8.60;99.90
11617;DHT22;5864;52.998;9.068;2023-04-16T04:03:43;8.40;99.90
11617;DHT22;5864;52.998;9.068;2023-04-16T04:06:28;8.40;99.90
11617;DHT22;5864;52.998;9.068;2023-04-16T04:09:15;8.40;99.90
11617;DHT22;5864;52.998;9.068;2023-04-16T04:12:00;9.00;99.90
11617;DHT22;5864;52.998;9.068;2023-04-16T04:14:47;8.40;99.90
11617;DHT22;5864;52.998;9.068;2023-04-16T04:17:32;8.30;99.90
11617;DHT22;5864;52.998;9.068;2023-04-16T04:20:18;9.00;99.90
11617;DHT22;5864;52.998;9.068;2023-04-16T04:23:03;8.70;99.90
11617;DHT22;5864;52.998;9.068;2023-04-16T04:25:51;8.30;99.90
11617;DHT22;5864;52.998;9.068;2023-04-16T04:28:37;9.50;99.90
11617;DHT22;5864;52.998;9.068;2023-04-16T04:31:22;8.40;99.90
11617;DHT22;5864;52.998;9.068;2023-04-16T04:34:08;8.30;99.90
11617;DHT22;5864;52.998;9.068;2023-04-16T04:36:53;8.30;99.90
11617;DHT22;5864;52.998;9.068;2023-04-16T04:39:40;9.60;99.90
11617;DHT22;5864;52.998;9.068;2023-04-16T04:42:27;8.30;99.90
11617;DHT22;5864;52.998;9.068;2023-04-16T04:45:13;8.30;99.90
11617;DHT22;5864;52.998;9.068;2023-04-16T04:47:58;11.10;99.90
11617;DHT22;5864;52.998;9.068;2023-04-16T04:50:45;9.50;99.90
11617;DHT22;5864;52.998;9.068;2023-04-16T04:53:30;8.30;99.90
11617;DHT22;5864;52.998;9.068;2023-04-16T04:56:17;9.50;99.90
11617;DHT22;5864;52.998;9.068;2023-04-16T04:59:04;8.30;99.90
11617;DHT22;5864;52.998;9.068;2023-04-16T05:01:50;8.50;99.90
11617;DHT22;5864;52.998;9.068;2023-04-16T05:04:36;8.40;99.90
11617;DHT22;5864;52.998;9.068;2023-04-16T05:07:22;9.00;99.90
11617;DHT22;5864;52.998;9.068;2023-04-16T05:10:08;8.40;99.90
11617;DHT22;5864;52.998;9.068;2023-04-16T05:12:55;8.40;99.90
11617;DHT22;5864;52.998;9.068;2023-04-16T05:15:41;8.40;99.90
11617;DHT22;5864;52.998;9.068;2023-04-16T05:18:28;9.90;99.90
11617;DHT22;5864;52.998;9.068;2023-04-16T05:21:13;8.50;99.90
11617;DHT22;5864;52.998;9.068;2023-04-16T05:24:00;9.30;99.90
11617;DHT22;5864;52.998;9.068;2023-04-16T05:26:45;10.70;99.90
11617;DHT22;5864;52.998;9.068;2023-04-16T05:29:32;8.50;99.90
11617;DHT22;5864;52.998;9.068;2023-04-16T05:32:18;8.60;99.90
11617;DHT22;5864;52.998;9.068;2023-04-16T05:35:05;8.50;99.90
11617;DHT22;5864;52.998;9.068;2023-04-16T05:37:50;8.60;99.90
11617;DHT22;5864;52.998;9.068;2023-04-16T05:40:36;8.50;99.90
11617;DHT22;5864;52.998;9.068;2023-04-16T05:43:21;8.40;99.90
11617;DHT22;5864;52.998;9.068;2023-04-16T05:46:07;8.50;99.90
11617;DHT22;5864;52.998;9.068;2023-04-16T05:48:54;8.60;99.90
11617;DHT22;5864;52.998;9.068;2023-04-16T05:51:40;8.60;99.90
11617;DHT22;5864;52.998;9.068;2023-04-16T05:54:26;8.60;99.90
11617;DHT22;5864;52.998;9.068;2023-04-16T05:57:12;8.50;99.90
11617;DHT22;5864;52.998;9.068;2023-04-16T05:59:58;8.60;99.90
11617;DHT22;5864;52.998;9.068;2023-04-16T06:02:43;8.60;99.90
11617;DHT22;5864;52.998;9.068;2023-04-16T06:05:30;8.70;99.90
11617;DHT22;5864;52.998;9.068;2023-04-16T06:08:16;8.80;99.90
11617;DHT22;5864;52.998;9.068;2023-04-16T06:11:02;9.90;99.90
11617;DHT22;5864;52.998;9.068;2023-04-16T06:13:48;8.80;99.90
11617;DHT22;5864;52.998;9.068;2023-04-16T06:16:35;8.90;99.90
11617;DHT22;5864;52.998;9.068;2023-04-16T06:19:20;9.00;99.90
11617;DHT22;5864;52.998;9.068;2023-04-16T06:22:07;9.20;99.90
11617;DHT22;5864;52.998;9.068;2023-04-16T06:24:52;10.70;99.90
11617;DHT22;5864;52.998;9.068;2023-04-16T06:27:38;9.30;99.90
11617;DHT22;5864;52.998;9.068;2023-04-16T06:30:24;9.30;99.90
11617;DHT22;5864;52.998;9.068;2023-04-16T06:33:10;9.30;99.90
11617;DHT22;5864;52.998;9.068;2023-04-16T06:35:55;9.40;99.90
11617;DHT22;5864;52.998;9.068;2023-04-16T06:38:42;9.30;99.90
11617;DHT22;5864;52.998;9.068;2023-04-16T06:41:28;9.20;99.90
11617;DHT22;5864;52.998;9.068;2023-04-16T06:44:15;9.20;99.90
11617;DHT22;5864;52.998;9.068;2023-04-16T06:47:00;9.70;99.90
11617;DHT22;5864;52.998;9.068;2023-04-16T06:49:47;9.20;99.90
11617;DHT22;5864;52.998;9.068;2023-04-16T06:52:32;12.60;99.90
11617;DHT22;5864;52.998;9.068;2023-04-16T06:55:19;12.10;99.90
11617;DHT22;5864;52.998;9.068;2023-04-16T06:58:05;9.10;99.90
11617;DHT22;5864;52.998;9.068;2023-04-16T07:00:51;10.70;99.90
11617;DHT22;5864;52.998;9.068;2023-04-16T07:03:36;9.20;99.90
11617;DHT22;5864;52.998;9.068;2023-04-16T07:06:22;9.30;99.90
11617;DHT22;5864;52.998;9.068;2023-04-16T07:09:08;9.30;99.90
11617;DHT22;5864;52.998;9.068;2023-04-16T07:11:55;9.40;99.90
11617;DHT22;5864;52.998;9.068;2023-04-16T07:14:41;9.20;99.90
11617;DHT22;5864;52.998;9.068;2023-04-16T07:17:27;9.20;99.90
11617;DHT22;5864;52.998;9.068;2023-04-16T07:20:12;9.30;99.90
11617;DHT22;5864;52.998;9.068;2023-04-16T07:22:58;9.60;99.90
11617;DHT22;5864;52.998;9.068;2023-04-16T07:25:43;9.30;99.90
11617;DHT22;5864;52.998;9.068;2023-04-16T07:28:30;11.20;99.90
11617;DHT22;5864;52.998;9.068;2023-04-16T07:31:16;9.20;99.90
11617;DHT22;5864;52.998;9.068;2023-04-16T07:34:01;9.30;99.90
11617;DHT22;5864;52.998;9.068;2023-04-16T07:36:48;9.30;99.90
11617;DHT22;5864;52.998;9.068;2023-04-16T07:39:33;9.40;99.90
11617;DHT22;5864;52.998;9.068;2023-04-16T07:42:19;9.40;99.90
11617;DHT22;5864;52.998;9.068;2023-04-16T07:45:07;9.60;99.90
11617;DHT22;5864;52.998;9.068;2023-04-16T07:47:53;9.50;99.90
11617;DHT22;5864;52.998;9.068;2023-04-16T07:50:40;11.50;99.90
11617;DHT22;5864;52.998;9.068;2023-04-16T07:53:26;9.60;99.90
11617;DHT22;5864;52.998;9.068;2023-04-16T07:56:12;9.60;99.90
11617;DHT22;5864;52.998;9.068;2023-04-16T07:58:57;9.70;99.90
11617;DHT22;5864;52.998;9.068;2023-04-16T08:01:44;9.70;99.90
11617;DHT22;5864;52.998;9.068;2023-04-16T08:04:30;9.70;99.90
11617;DHT22;5864;52.998;9.068;2023-04-16T08:07:15;9.80;99.90
11617;DHT22;5864;52.998;9.068;2023-04-16T08:10:01;9.90;99.90
11617;DHT22;5864;52.998;9.068;2023-04-16T08:12:47;11.10;99.90
11617;DHT22;5864;52.998;9.068;2023-04-16T08:15:32;11.80;99.90
11617;DHT22;5864;52.998;9.068;2023-04-16T08:18:20;10.20;99.90
11617;DHT22;5864;52.998;9.068;2023-04-16T08:21:05;10.20;99.90
11617;DHT22;5864;52.998;9.068;2023-04-16T08:23:51;10.20;99.90
11617;DHT22;5864;52.998;9.068;2023-04-16T08:26:38;10.20;99.90
11617;DHT22;5864;52.998;9.068;2023-04-16T08:29:24;11.30;99.90
11617;DHT22;5864;52.998;9.068;2023-04-16T08:32:10;10.20;99.90
11617;DHT22;5864;52.998;9.068;2023-04-16T08:34:58;10.20;99.90
11617;DHT22;5864;52.998;9.068;2023-04-16T08:37:43;11.00;99.90
11617;DHT22;5864;52.998;9.068;2023-04-16T08:40:29;11.30;99.90
11617;DHT22;5864;52.998;9.068;2023-04-16T08:43:17;10.30;99.90
11617;DHT22;5864;52.998;9.068;2023-04-16T08:46:04;10.40;99.90
11617;DHT22;5864;52.998;9.068;2023-04-16T08:48:52;10.40;99.90
11617;DHT22;5864;52.998;9.068;2023-04-16T08:51:41;10.40;99.90
11617;DHT22;5864;52.998;9.068;2023-04-16T08:54:33;10.50;99.90
11617;DHT22;5864;52.998;9.068;2023-04-16T08:57:22;10.60;99.90
11617;DHT22;5864;52.998;9.068;2023-04-16T09:00:08;10.60;99.90
11617;DHT22;5864;52.998;9.068;2023-04-16T09:02:53;10.70;99.90
11617;DHT22;5864;52.998;9.068;2023-04-16T09:05:39;10.70;99.90
11617;DHT22;5864;52.998;9.068;2023-04-16T09:08:28;10.70;99.90
11617;DHT22;5864;52.998;9.068;2023-04-16T09:11:16;10.80;99.90
11617;DHT22;5864;52.998;9.068;2023-04-16T09:14:03;10.80;99.90
11617;DHT22;5864;52.998;9.068;2023-04-16T09:16:53;11.00;99.90
11617;DHT22;5864;52.998;9.068;2023-04-16T09:19:38;11.00;99.90
11617;DHT22;5864;52.998;9.068;2023-04-16T09:22:25;10.80;99.90
11617;DHT22;5864;52.998;9.068;2023-04-16T09:25:12;10.90;99.90
11617;DHT22;5864;52.998;9.068;2023-04-16T09:27:58;10.80;99.90
11617;DHT22;5864;52.998;9.068;2023-04-16T09:30:43;10.80;99.90
11617;DHT22;5864;52.998;9.068;2023-04-16T09:33:29;10.80;99.90
11617;DHT22;5864;52.998;9.068;2023-04-16T09:36:22;11.00;99.90
11617;DHT22;5864;52.998;9.068;2023-04-16T09:39:17;11.00;99.90
11617;DHT22;5864;52.998;9.068;2023-04-16T09:42:05;11.00;99.90
11617;DHT22;5864;52.998;9.068;2023-04-16T09:44:52;11.20;99.90
11617;DHT22;5864;52.998;9.068;2023-04-16T09:47:39;11.20;99.90
11617;DHT22;5864;52.998;9.068;2023-04-16T09:50:25;11.40;99.90
11617;DHT22;5864;52.998;9.068;2023-04-16T09:53:12;11.50;99.90
11617;DHT22;5864;52.998;9.068;2023-04-16T09:55:59;11.60;99.90
11617;DHT22;5864;52.998;9.068;2023-04-16T09:58:46;11.70;99.90
11617;DHT22;5864;52.998;9.068;2023-04-16T10:01:32;11.80;99.90
11617;DHT22;5864;52.998;9.068;2023-04-16T10:04:18;11.80;99.90
11617;DHT22;5864;52.998;9.068;2023-04-16T10:07:04;12.90;99.90
11617;DHT22;5864;52.998;9.068;2023-04-16T10:09:50;12.10;99.90
11617;DHT22;5864;52.998;9.068;2023-04-16T10:12:37;12.20;99.90
11617;DHT22;5864;52.998;9.068;2023-04-16T10:15:24;12.20;1.00
11617;DHT22;5864;52.998;9.068;2023-04-16T10:18:09;12.30;99.90
11617;DHT22;5864;52.998;9.068;2023-04-16T10:20:56;12.70;99.90
11617;DHT22;5864;52.998;9.068;2023-04-16T10:23:43;12.90;99.90
11617;DHT22;5864;52.998;9.068;2023-04-16T10:26:30;13.20;99.90
11617;DHT22;5864;52.998;9.068;2023-04-16T10:29:16;13.10;99.90
11617;DHT22;5864;52.998;9.068;2023-04-16T10:32:05;12.90;99.90
11617;DHT22;5864;52.998;9.068;2023-04-16T10:34:51;13.00;99.90
11617;DHT22;5864;52.998;9.068;2023-04-16T10:37:37;13.10;99.90
11617;DHT22;5864;52.998;9.068;2023-04-16T10:40:26;13.30;99.90
11617;DHT22;5864;52.998;9.068;2023-04-16T10:43:16;13.80;99.90
11617;DHT22;5864;52.998;9.068;2023-04-16T10:46:22;13.90;99.90
11617;DHT22;5864;52.998;9.068;2023-04-16T10:49:16;14.00;99.90
11617;DHT22;5864;52.998;9.068;2023-04-16T10:52:07;13.60;99.90
11617;DHT22;5864;52.998;9.068;2023-04-16T10:54:54;13.40;99.90
11617;DHT22;5864;52.998;9.068;2023-04-16T10:57:40;13.40;99.90
11617;DHT22;5864;52.998;9.068;2023-04-16T11:00:25;13.30;99.90
11617;DHT22;5864;52.998;9.068;2023-04-16T11:03:11;13.30;99.90
11617;DHT22;5864;52.998;9.068;2023-04-16T11:06:10;13.50;99.90
11617;DHT22;5864;52.998;9.068;2023-04-16T11:08:57;13.60;99.90
11617;DHT22;5864;52.998;9.068;2023-04-16T11:11:44;13.50;99.90
11617;DHT22;5864;52.998;9.068;2023-04-16T11:14:31;13.40;99.90
11617;DHT22;5864;52.998;9.068;2023-04-16T11:17:18;13.50;99.90
11617;DHT22;5864;52.998;9.068;2023-04-16T11:20:05;13.30;99.90
11617;DHT22;5864;52.998;9.068;2023-04-16T11:22:53;13.30;99.90
11617;DHT22;5864;52.998;9.068;2023-04-16T11:25:40;13.40;99.90
11617;DHT22;5864;52.998;9.068;2023-04-16T11:28:32;13.40;99.90
11617;DHT22;5864;52.998;9.068;2023-04-16T11:31:19;13.50;99.90
11617;DHT22;5864;52.998;9.068;2023-04-16T11:34:06;13.40;99.90
11617;DHT22;5864;52.998;9.068;2023-04-16T11:36:52;13.50;99.90
11617;DHT22;5864;52.998;9.068;2023-04-16T11:39:49;13.40;99.90
11617;DHT22;5864;52.998;9.068;2023-04-16T11:42:36;13.50;99.90
11617;DHT22;5864;52.998;9.068;2023-04-16T11:45:24;13.30;99.90
11617;DHT22;5864;52.998;9.068;2023-04-16T11:48:09;13.50;99.90
11617;DHT22;5864;52.998;9.068;2023-04-16T11:50:56;13.30;99.90
11617;DHT22;5864;52.998;9.068;2023-04-16T11:53:46;13.00;99.90
11617;DHT22;5864;52.998;9.068;2023-04-16T11:56:34;13.00;99.90
11617;DHT22;5864;52.998;9.068;2023-04-16T11:59:21;13.10;99.90
11617;DHT22;5864;52.998;9.068;2023-04-16T12:02:07;13.10;99.90
11617;DHT22;5864;52.998;9.068;2023-04-16T12:04:53;13.10;99.90
11617;DHT22;5864;52.998;9.068;2023-04-16T12:07:45;13.10;99.90
11617;DHT22;5864;52.998;9.068;2023-04-16T12:10:32;13.30;99.90
11617;DHT22;5864;52.998;9.068;2023-04-16T12:13:20;13.30;99.90
11617;DHT22;5864;52.998;9.068;2023-04-16T12:16:17;12.90;99.90
11617;DHT22;5864;52.998;9.068;2023-04-16T12:19:04;13.00;99.90
11617;DHT22;5864;52.998;9.068;2023-04-16T12:21:50;13.00;99.90
11617;DHT22;5864;52.998;9.068;2023-04-16T12:24:35;12.90;99.90
11617;DHT22;5864;52.998;9.068;2023-04-16T12:27:21;12.90;99.90
11617;DHT22;5864;52.998;9.068;2023-04-16T12:30:14;13.00;99.90
11617;DHT22;5864;52.998;9.068;2023-04-16T12:33:13;13.00;99.90
11617;DHT22;5864;52.998;9.068;2023-04-16T12:35:59;13.10;99.90
11617;DHT22;5864;52.998;9.068;2023-04-16T12:38:45;13.10;99.90
11617;DHT22;5864;52.998;9.068;2023-04-16T12:41:30;13.30;99.90
11617;DHT22;5864;52.998;9.068;2023-04-16T12:44:16;13.10;99.90
11617;DHT22;5864;52.998;9.068;2023-04-16T12:47:03;13.00;99.90
11617;DHT22;5864;52.998;9.068;2023-04-16T12:49:49;13.30;99.90
11617;DHT22;5864;52.998;9.068;2023-04-16T12:52:34;13.50;99.90
11617;DHT22;5864;52.998;9.068;2023-04-16T12:55:21;13.50;99.90
11617;DHT22;5864;52.998;9.068;2023-04-16T12:58:07;13.50;99.90
11617;DHT22;5864;52.998;9.068;2023-04-16T13:00:53;13.70;99.90
11617;DHT22;5864;52.998;9.068;2023-04-16T13:03:39;13.90;99.90
11617;DHT22;5864;52.998;9.068;2023-04-16T13:06:26;13.70;99.90
11617;DHT22;5864;52.998;9.068;2023-04-16T13:09:11;13.70;99.90
11617;DHT22;5864;52.998;9.068;2023-04-16T13:11:57;13.70;99.90
11617;DHT22;5864;52.998;9.068;2023-04-16T13:14:43;13.70;99.90
11617;DHT22;5864;52.998;9.068;2023-04-16T13:17:28;13.80;99.90
11617;DHT22;5864;52.998;9.068;2023-04-16T13:20:16;13.80;99.90
11617;DHT22;5864;52.998;9.068;2023-04-16T13:23:02;13.70;99.90
11617;DHT22;5864;52.998;9.068;2023-04-16T13:25:47;11.10;99.90
11617;DHT22;5864;52.998;9.068;2023-04-16T13:28:33;14.00;99.90
11617;DHT22;5864;52.998;9.068;2023-04-16T13:31:19;13.90;99.90
11617;DHT22;5864;52.998;9.068;2023-04-16T13:34:05;13.80;99.90
11617;DHT22;5864;52.998;9.068;2023-04-16T13:36:52;13.80;99.90
11617;DHT22;5864;52.998;9.068;2023-04-16T13:39:38;13.90;99.90
11617;DHT22;5864;52.998;9.068;2023-04-16T13:42:23;13.90;99.90
11617;DHT22;5864;52.998;9.068;2023-04-16T13:45:10;13.70;99.90
11617;DHT22;5864;52.998;9.068;2023-04-16T13:47:55;13.80;99.90
11617;DHT22;5864;52.998;9.068;2023-04-16T13:50:41;14.00;99.90
11617;DHT22;5864;52.998;9.068;2023-04-16T13:53:28;14.20;99.90
11617;DHT22;5864;52.998;9.068;2023-04-16T13:56:14;14.20;99.90
11617;DHT22;5864;52.998;9.068;2023-04-16T13:58:59;14.10;99.90
11617;DHT22;5864;52.998;9.068;2023-04-16T14:01:45;13.90;99.90
11617;DHT22;5864;52.998;9.068;2023-04-16T14:04:31;14.10;99.90
11617;DHT22;5864;52.998;9.068;2023-04-16T14:07:16;14.00;99.90
11617;DHT22;5864;52.998;9.068;2023-04-16T14:10:07;14.00;99.90
11617;DHT22;5864;52.998;9.068;2023-04-16T14:12:52;14.00;99.90
11617;DHT22;5864;52.998;9.068;2023-04-16T14:15:38;14.10;99.90
11617;DHT22;5864;52.998;9.068;2023-04-16T14:18:24;14.10;99.90
11617;DHT22;5864;52.998;9.068;2023-04-16T14:21:11;14.20;99.90
11617;DHT22;5864;52.998;9.068;2023-04-16T14:23:56;14.10;99.90
11617;DHT22;5864;52.998;9.068;2023-04-16T14:26:43;14.10;99.90
11617;DHT22;5864;52.998;9.068;2023-04-16T14:29:29;14.80;99.90
11617;DHT22;5864;52.998;9.068;2023-04-16T14:32:16;13.70;99.90
11617;DHT22;5864;52.998;9.068;2023-04-16T14:35:01;13.80;99.90
11617;DHT22;5864;52.998;9.068;2023-04-16T14:37:47;13.70;99.90
11617;DHT22;5864;52.998;9.068;2023-04-16T14:40:33;13.70;99.90
11617;DHT22;5864;52.998;9.068;2023-04-16T14:43:21;13.90;99.90
11617;DHT22;5864;52.998;9.068;2023-04-16T14:46:06;13.60;99.90
11617;DHT22;5864;52.998;9.068;2023-04-16T14:48:52;13.70;99.90
11617;DHT22;5864;52.998;9.068;2023-04-16T14:51:37;13.80;99.90
11617;DHT22;5864;52.998;9.068;2023-04-16T14:54:24;13.70;99.90
11617;DHT22;5864;52.998;9.068;2023-04-16T14:57:09;13.60;99.90
11617;DHT22;5864;52.998;9.068;2023-04-16T14:59:57;13.50;99.90
11617;DHT22;5864;52.998;9.068;2023-04-16T15:02:43;13.30;99.90
11617;DHT22;5864;52.998;9.068;2023-04-16T15:05:29;13.30;99.90
11617;DHT22;5864;52.998;9.068;2023-04-16T15:08:14;13.40;99.90
11617;DHT22;5864;52.998;9.068;2023-04-16T15:11:01;13.20;99.90
11617;DHT22;5864;52.998;9.068;2023-04-16T15:13:46;13.20;99.90
11617;DHT22;5864;52.998;9.068;2023-04-16T15:16:33;13.30;99.90
11617;DHT22;5864;52.998;9.068;2023-04-16T15:19:18;13.20;99.90
11617;DHT22;5864;52.998;9.068;2023-04-16T15:22:04;13.10;99.90
11617;DHT22;5864;52.998;9.068;2023-04-16T15:24:49;13.30;99.90
11617;DHT22;5864;52.998;9.068;2023-04-16T15:27:36;13.10;99.90
11617;DHT22;5864;52.998;9.068;2023-04-16T15:30:21;13.10;99.90
11617;DHT22;5864;52.998;9.068;2023-04-16T15:33:08;13.10;99.90
11617;DHT22;5864;52.998;9.068;2023-04-16T15:35:54;13.10;99.90
11617;DHT22;5864;52.998;9.068;2023-04-16T15:38:39;13.10;99.90
11617;DHT22;5864;52.998;9.068;2023-04-16T15:41:28;13.00;99.90
11617;DHT22;5864;52.998;9.068;2023-04-16T15:44:13;13.10;99.90
11617;DHT22;5864;52.998;9.068;2023-04-16T15:46:59;13.00;99.90
11617;DHT22;5864;52.998;9.068;2023-04-16T15:49:46;13.00;99.90
11617;DHT22;5864;52.998;9.068;2023-04-16T15:52:31;13.10;99.90
11617;DHT22;5864;52.998;9.068;2023-04-16T15:55:17;13.50;99.90
11617;DHT22;5864;52.998;9.068;2023-04-16T15:58:04;13.00;99.90
11617;DHT22;5864;52.998;9.068;2023-04-16T16:00:49;12.90;99.90
11617;DHT22;5864;52.998;9.068;2023-04-16T16:03:35;12.90;99.90
11617;DHT22;5864;52.998;9.068;2023-04-16T16:06:22;12.90;99.90
11617;DHT22;5864;52.998;9.068;2023-04-16T16:09:07;12.90;99.90
11617;DHT22;5864;52.998;9.068;2023-04-16T16:11:54;12.90;99.90
11617;DHT22;5864;52.998;9.068;2023-04-16T16:14:41;12.90;99.90
11617;DHT22;5864;52.998;9.068;2023-04-16T16:17:28;12.90;99.90
11617;DHT22;5864;52.998;9.068;2023-04-16T16:20:13;12.90;99.90
11617;DHT22;5864;52.998;9.068;2023-04-16T16:23:00;12.80;99.90
11617;DHT22;5864;52.998;9.068;2023-04-16T16:25:46;12.70;99.90
11617;DHT22;5864;52.998;9.068;2023-04-16T16:28:31;12.50;99.90
11617;DHT22;5864;52.998;9.068;2023-04-16T16:31:21;12.50;99.90
11617;DHT22;5864;52.998;9.068;2023-04-16T16:34:06;12.50;99.90
11617;DHT22;5864;52.998;9.068;2023-04-16T16:36:52;12.40;99.90
11617;DHT22;5864;52.998;9.068;2023-04-16T16:39:39;12.50;99.90
11617;DHT22;5864;52.998;9.068;2023-04-16T16:42:24;12.40;99.90
11617;DHT22;5864;52.998;9.068;2023-04-16T16:45:11;12.40;99.90
11617;DHT22;5864;52.998;9.068;2023-04-16T16:47:56;12.40;99.90
11617;DHT22;5864;52.998;9.068;2023-04-16T16:50:43;12.30;99.90
11617;DHT22;5864;52.998;9.068;2023-04-16T16:53:28;12.30;99.90
11617;DHT22;5864;52.998;9.068;2023-04-16T16:56:15;12.30;99.90
11617;DHT22;5864;52.998;9.068;2023-04-16T16:59:01;12.30;99.90
11617;DHT22;5864;52.998;9.068;2023-04-16T17:01:46;12.30;99.90
11617;DHT22;5864;52.998;9.068;2023-04-16T17:04:33;12.20;99.90
11617;DHT22;5864;52.998;9.068;2023-04-16T17:07:18;12.20;99.90
11617;DHT22;5864;52.998;9.068;2023-04-16T17:10:04;12.20;99.90
11617;DHT22;5864;52.998;9.068;2023-04-16T17:12:51;12.20;99.90
11617;DHT22;5864;52.998;9.068;2023-04-16T17:15:38;12.40;99.90
11617;DHT22;5864;52.998;9.068;2023-04-16T17:18:23;12.00;99.90
11617;DHT22;5864;52.998;9.068;2023-04-16T17:21:10;12.40;99.90
11617;DHT22;5864;52.998;9.068;2023-04-16T17:23:55;11.90;99.90
11617;DHT22;5864;52.998;9.068;2023-04-16T17:26:42;12.00;99.90
11617;DHT22;5864;52.998;9.068;2023-04-16T17:29:29;11.90;99.90
11617;DHT22;5864;52.998;9.068;2023-04-16T17:32:15;12.00;99.90
11617;DHT22;5864;52.998;9.068;2023-04-16T17:35:02;11.90;99.90
11617;DHT22;5864;52.998;9.068;2023-04-16T17:37:50;11.90;99.90
11617;DHT22;5864;52.998;9.068;2023-04-16T17:40:36;11.90;99.90
11617;DHT22;5864;52.998;9.068;2023-04-16T17:43:22;11.80;99.90
11617;DHT22;5864;52.998;9.068;2023-04-16T17:46:10;11.80;99.90
11617;DHT22;5864;52.998;9.068;2023-04-16T17:48:56;11.80;99.90
11617;DHT22;5864;52.998;9.068;2023-04-16T17:51:41;11.70;99.90
11617;DHT22;5864;52.998;9.068;2023-04-16T17:54:27;11.60;99.90